Bellingham, WA (98225)

11:48 AM PDT on September 01, 2014 (GMT -0700)
Columbia-Eldridge Marimba Palace | Change Station
CLOSE
Current Station
Personal Weather Station
Location: Bellingham, WA
Elevation: 97 ft
Nearby Weather Stations

Elev 97 ft 48.76 °N, 122.50 °W | Updated 0 second ago

Mostly Cloudy
Mostly Cloudy
68.9 °F
Feels Like 68.9 °F
N
5.2
Wind Variable Wind from SW
Gusts 6.9 mph

Today
High -- | Low -- °F
--% Chance of Precip.
Yesterday
High -- | Low -- °F
Precip. -- in
6:27 AM 7:51 PM
Waxing Crescent, 43% visible
Pressure 30.09 in
Visibility 10.0 miles
Clouds Mostly Cloudy 8000 ft
Dew Point 59 °F
Humidity 71%
Rainfall 0.00 in
Snow Depth Not available.
UV 3 out of 12
Pollen 2.80 out of 12
PM2.5 Good
Flu Activity Not available.
METAR KBLI 011753Z 18007G15KT 10SM BKN080 18/12 A3007 RMK AO2 SLP190 T01830122 10183 20150 51002

More Conditions Fewer Conditions

Pressure 30.09 in
Visibility 10.0 miles
Clouds Mostly Cloudy 8000 ft
Dew Point 59 °F
Humidity 71%
Rainfall 0.00 in
Snow Depth Not available.
UV 3 out of 12
Pollen 2.80 out of 12
PM2.5 Good
Flu Activity Not available.
METAR KBLI 011753Z 18007G15KT 10SM BKN080 18/12 A3007 RMK AO2 SLP190 T01830122 10183 20150 51002

More Conditions Fewer Conditions

10-Day Weather Forecast

Almanac

Astronomy

Sep. 01, 2014 Rise Set
Actual Time 6:27 AM PDT 7:51 PM PDT
Civil Twilight 5:54 AM PDT 8:24 PM PDT
Nautical Twilight 5:14 AM PDT 9:03 PM PDT
Astronomical Twilight 4:31 AM PDT 9:46 PM PDT
Moon 1:52 PM PDT 11:22 PM PDT
Length of Visible Light 14h 30m
Length of Day
13h 24m
Tomorrow will be 3m 28s shorter.
Waxing Crescent, 43% of the Moon is Illuminated
Today
Waxing Crescent
Sep 2
First Quarter
Sep 8
Full
Sep 15
Last Quarter
Sep 24
New

Today's Extremes

State Highs State Lows

Community

WunderPhotos

Upload Photos

1,749,359 photos uploaded!

Nearby

Air Quality

  Air Quality AQ Index Pollutant
Yesterday Good
OZONE
Yesterday Good
PM2.5
Current Good
PM2.5
Monday Good
OZONE
Monday Good
PM2.5
Tuesday Good
OZONE
Tuesday Good
PM2.5

Snow Depth

Station Depth Elevation
Beaver Pass 0 in 3620 ft
Dungeness 0 in 4100 ft
Alpine Meadows 0 in 3500 ft
Lyman Lake 0 in 5900 ft
Rainy Pass 0 in 4780 ft

Earthquake Activity

City Distance Mag. Time & Date
No recent earthquake activity has been reported nearby.
Minimum magnitude displayed is 2.5.

Coastal Water Temperatures

Place Temperature
Port Townsend, WA 53.1 °F
Friday Harbor, WA 53.1 °F
Port Angeles, WA 52.0 °F

Nearby Weather Stations